TOM74B LEPA-EGNV
Flight info
| Callsign | TOM74B |
|---|---|
| Flight time | 2h 26m |
| Altitude | 40000 |
| Route | DRAGO DCT PAPOS DCT UMURE N863 GIROM DCT AGN DCT SECHE DCT UVELI DCT CNA DCT TUPAR UN861 ANG DCT AKIKI UN867 AVANT UM184 HEMEL Q3 MOGLI L613 MAMUL Y250 GASKO |
| Aircraft | B738/M-SDE2E3FGHIRWXY/LB1 |
Departure
| Time | 2026-05-06 17:25 |
|---|---|
| Airport | Palma de Mallorca Airport (LEPA) |
Arrival
| Time | 2026-05-06 19:52 |
|---|---|
| Airport | Teesside International Airport (EGNV) |
| Time | Latitude | Longitude | Altitude | Speed | Heading |
|---|---|---|---|---|---|
| 2026-05-06 16:13 | 39.54971 | 2.72628 | 29 ft | 0 kts | 149° |
| 2026-05-06 17:14 | 39.54985 | 2.72616 | 29 ft | 4 kts | 148° |
| 2026-05-06 17:14 | 39.55004 | 2.72601 | 29 ft | 3 kts | 148° |
| 2026-05-06 17:14 | 39.55023 | 2.72579 | 29 ft | 4 kts | 111° |
| 2026-05-06 17:15 | 39.55024 | 2.72549 | 29 ft | 4 kts | 62° |
| 2026-05-06 17:15 | 39.55011 | 2.72521 | 29 ft | 3 kts | 59° |
| 2026-05-06 17:15 | 39.55010 | 2.72518 | 29 ft | 0 kts | 59° |
| 2026-05-06 17:17 | 39.55011 | 2.72520 | 29 ft | 2 kts | 59° |
| 2026-05-06 17:18 | 39.55032 | 2.72547 | 29 ft | 7 kts | 14° |
| 2026-05-06 17:18 | 39.55105 | 2.72503 | 29 ft | 16 kts | 330° |
| 2026-05-06 17:18 | 39.55192 | 2.72519 | 29 ft | 15 kts | 58° |
| 2026-05-06 17:18 | 39.55253 | 2.72644 | 29 ft | 18 kts | 61° |
| 2026-05-06 17:19 | 39.55321 | 2.72793 | 29 ft | 21 kts | 58° |
| 2026-05-06 17:19 | 39.55404 | 2.72966 | 29 ft | 24 kts | 59° |
| 2026-05-06 17:19 | 39.55491 | 2.73151 | 29 ft | 24 kts | 58° |
| 2026-05-06 17:19 | 39.55573 | 2.73327 | 29 ft | 23 kts | 59° |
| 2026-05-06 17:20 | 39.55630 | 2.73477 | 29 ft | 16 kts | 104° |
| 2026-05-06 17:20 | 39.55537 | 2.73569 | 29 ft | 19 kts | 149° |
| 2026-05-06 17:20 | 39.55417 | 2.73664 | 29 ft | 22 kts | 148° |
| 2026-05-06 17:20 | 39.55283 | 2.73770 | 29 ft | 22 kts | 146° |
| 2026-05-06 17:21 | 39.55150 | 2.73873 | 29 ft | 22 kts | 149° |
| 2026-05-06 17:21 | 39.55009 | 2.73985 | 29 ft | 25 kts | 149° |
| 2026-05-06 17:21 | 39.54872 | 2.74093 | 29 ft | 16 kts | 149° |
| 2026-05-06 17:21 | 39.54776 | 2.74095 | 29 ft | 16 kts | 233° |
| 2026-05-06 17:22 | 39.54715 | 2.73965 | 29 ft | 18 kts | 238° |
| 2026-05-06 17:22 | 39.54644 | 2.73816 | 29 ft | 20 kts | 238° |
| 2026-05-06 17:22 | 39.54566 | 2.73652 | 29 ft | 24 kts | 238° |
| 2026-05-06 17:22 | 39.54469 | 2.73448 | 29 ft | 27 kts | 238° |
| 2026-05-06 17:23 | 39.54391 | 2.73281 | 29 ft | 17 kts | 239° |
| 2026-05-06 17:23 | 39.54334 | 2.73171 | 29 ft | 10 kts | 216° |
| 2026-05-06 17:23 | 39.54294 | 2.73198 | 29 ft | 6 kts | 121° |
| 2026-05-06 17:23 | 39.54283 | 2.73247 | 29 ft | 6 kts | 97° |
| 2026-05-06 17:24 | 39.54279 | 2.73331 | 29 ft | 15 kts | 94° |
| 2026-05-06 17:24 | 39.54276 | 2.73475 | 29 ft | 16 kts | 77° |
| 2026-05-06 17:24 | 39.54333 | 2.73607 | 29 ft | 20 kts | 59° |
| 2026-05-06 17:24 | 39.54500 | 2.73959 | 29 ft | 82 kts | 58° |
| 2026-05-06 17:25 | 39.54921 | 2.74854 | 34 ft | 147 kts | 58° |
| 2026-05-06 17:25 | 39.55467 | 2.76047 | 636 ft | 151 kts | 58° |
| 2026-05-06 17:25 | 39.55993 | 2.77194 | 1414 ft | 151 kts | 58° |
| 2026-05-06 17:25 | 39.56571 | 2.78446 | 1801 ft | 176 kts | 59° |
| 2026-05-06 17:26 | 39.57253 | 2.79929 | 2087 ft | 206 kts | 60° |
| 2026-05-06 17:26 | 39.58003 | 2.81563 | 2602 ft | 215 kts | 59° |
| 2026-05-06 17:26 | 39.58783 | 2.83255 | 3277 ft | 220 kts | 59° |
| 2026-05-06 17:26 | 39.59562 | 2.84947 | 4131 ft | 219 kts | 59° |
| 2026-05-06 17:27 | 39.60355 | 2.86670 | 4803 ft | 225 kts | 59° |
| 2026-05-06 17:27 | 39.61162 | 2.88428 | 5560 ft | 228 kts | 59° |
| 2026-05-06 17:27 | 39.61968 | 2.90200 | 6384 ft | 229 kts | 59° |
| 2026-05-06 17:27 | 39.63077 | 2.91639 | 7167 ft | 231 kts | 21° |
| 2026-05-06 17:28 | 39.64653 | 2.91723 | 8019 ft | 232 kts | 341° |
| 2026-05-06 17:28 | 39.65946 | 2.90522 | 8809 ft | 234 kts | 307° |
| 2026-05-06 17:28 | 39.66805 | 2.88720 | 9579 ft | 236 kts | 292° |
| 2026-05-06 17:28 | 39.67292 | 2.86695 | 10463 ft | 235 kts | 283° |
| 2026-05-06 17:29 | 39.67646 | 2.84622 | 11330 ft | 234 kts | 280° |
| 2026-05-06 17:29 | 39.68034 | 2.82544 | 11949 ft | 247 kts | 287° |
| 2026-05-06 17:29 | 39.68695 | 2.80346 | 12184 ft | 276 kts | 290° |
| 2026-05-06 17:29 | 39.69484 | 2.77942 | 12396 ft | 303 kts | 290° |
| 2026-05-06 17:30 | 39.70344 | 2.75337 | 12829 ft | 320 kts | 290° |
| 2026-05-06 17:30 | 39.71217 | 2.72661 | 13644 ft | 323 kts | 290° |
| 2026-05-06 17:30 | 39.72093 | 2.69948 | 14521 ft | 327 kts | 289° |
| 2026-05-06 17:30 | 39.72963 | 2.67224 | 15459 ft | 327 kts | 289° |
| 2026-05-06 17:31 | 39.73831 | 2.64484 | 16334 ft | 330 kts | 289° |
| 2026-05-06 17:31 | 39.74703 | 2.61708 | 17114 ft | 334 kts | 288° |
| 2026-05-06 17:31 | 39.75577 | 2.58906 | 17949 ft | 336 kts | 288° |
| 2026-05-06 17:31 | 39.76458 | 2.56079 | 18738 ft | 339 kts | 288° |
| 2026-05-06 17:32 | 39.77343 | 2.53227 | 19488 ft | 342 kts | 288° |
| 2026-05-06 17:32 | 39.78237 | 2.50343 | 20204 ft | 346 kts | 287° |
| 2026-05-06 17:32 | 39.79140 | 2.47426 | 20929 ft | 349 kts | 287° |
| 2026-05-06 17:32 | 39.80048 | 2.44485 | 21585 ft | 353 kts | 287° |
| 2026-05-06 17:33 | 39.80968 | 2.41505 | 22215 ft | 356 kts | 287° |
| 2026-05-06 17:33 | 39.81893 | 2.38504 | 22877 ft | 359 kts | 287° |
| 2026-05-06 17:33 | 39.82827 | 2.35476 | 23415 ft | 365 kts | 287° |
| 2026-05-06 17:33 | 39.83779 | 2.32380 | 23638 ft | 370 kts | 287° |
| 2026-05-06 17:34 | 39.84733 | 2.29284 | 23885 ft | 367 kts | 287° |
| 2026-05-06 17:34 | 39.85674 | 2.26220 | 23930 ft | 365 kts | 287° |
| 2026-05-06 17:34 | 39.86621 | 2.23117 | 24179 ft | 373 kts | 287° |
| 2026-05-06 17:34 | 39.87257 | 2.21037 | 24619 ft | 372 kts | 286° |
| 2026-05-06 17:35 | 39.88212 | 2.17918 | 25348 ft | 370 kts | 286° |
| 2026-05-06 17:35 | 39.89168 | 2.14796 | 25940 ft | 372 kts | 286° |
| 2026-05-06 17:35 | 39.90129 | 2.11649 | 26454 ft | 375 kts | 286° |
| 2026-05-06 17:36 | 39.92067 | 2.05290 | 27469 ft | 380 kts | 285° |
| 2026-05-06 17:36 | 39.93044 | 2.02085 | 28016 ft | 381 kts | 285° |
| 2026-05-06 17:36 | 39.94023 | 1.98866 | 28516 ft | 384 kts | 285° |
| 2026-05-06 17:36 | 39.95010 | 1.95619 | 28987 ft | 387 kts | 285° |
| 2026-05-06 17:37 | 39.96003 | 1.92348 | 29464 ft | 389 kts | 285° |
| 2026-05-06 17:37 | 39.97004 | 1.89051 | 29927 ft | 391 kts | 285° |
| 2026-05-06 17:37 | 39.98005 | 1.85753 | 30327 ft | 393 kts | 285° |
| 2026-05-06 17:37 | 39.99013 | 1.82430 | 30701 ft | 395 kts | 285° |
| 2026-05-06 17:38 | 40.00316 | 1.79226 | 31027 ft | 410 kts | 300° |
| 2026-05-06 17:38 | 40.02306 | 1.76484 | 31404 ft | 423 kts | 312° |
| 2026-05-06 17:38 | 40.04801 | 1.74325 | 31751 ft | 441 kts | 327° |
| 2026-05-06 17:38 | 40.07657 | 1.72777 | 32086 ft | 447 kts | 331° |
| 2026-05-06 17:39 | 40.10573 | 1.71330 | 32381 ft | 450 kts | 332° |
| 2026-05-06 17:39 | 40.13512 | 1.69902 | 32732 ft | 451 kts | 332° |
| 2026-05-06 17:39 | 40.16445 | 1.68466 | 33186 ft | 449 kts | 331° |
| 2026-05-06 17:39 | 40.19353 | 1.67021 | 33699 ft | 445 kts | 331° |
| 2026-05-06 17:40 | 40.22233 | 1.65567 | 34156 ft | 442 kts | 330° |
| 2026-05-06 17:40 | 40.25096 | 1.64101 | 34484 ft | 443 kts | 330° |
| 2026-05-06 17:40 | 40.27966 | 1.62619 | 34771 ft | 444 kts | 330° |
| 2026-05-06 17:40 | 40.30837 | 1.61134 | 35099 ft | 444 kts | 330° |
| 2026-05-06 17:41 | 40.33708 | 1.59649 | 35460 ft | 443 kts | 330° |
| 2026-05-06 17:41 | 40.36569 | 1.58169 | 35801 ft | 442 kts | 330° |
| 2026-05-06 17:41 | 40.39398 | 1.56704 | 36100 ft | 443 kts | 330° |
| 2026-05-06 17:41 | 40.42263 | 1.55219 | 36389 ft | 443 kts | 330° |
| 2026-05-06 17:42 | 40.45128 | 1.53733 | 36655 ft | 444 kts | 330° |
| 2026-05-06 17:42 | 40.48001 | 1.52244 | 36999 ft | 442 kts | 330° |
| 2026-05-06 17:42 | 40.50838 | 1.50777 | 37524 ft | 435 kts | 330° |
| 2026-05-06 17:42 | 40.53644 | 1.49321 | 37898 ft | 433 kts | 330° |
| 2026-05-06 17:43 | 40.56446 | 1.47860 | 38117 ft | 434 kts | 330° |
| 2026-05-06 17:43 | 40.59261 | 1.46391 | 38272 ft | 437 kts | 330° |
| 2026-05-06 17:43 | 40.62089 | 1.44917 | 38486 ft | 437 kts | 330° |
| 2026-05-06 17:43 | 40.64916 | 1.43443 | 38750 ft | 437 kts | 331° |
| 2026-05-06 17:44 | 40.67736 | 1.41973 | 38986 ft | 437 kts | 331° |
| 2026-05-06 17:44 | 40.70565 | 1.40496 | 39171 ft | 438 kts | 331° |
| 2026-05-06 17:44 | 40.73398 | 1.39013 | 39360 ft | 438 kts | 331° |
| 2026-05-06 17:44 | 40.76233 | 1.37528 | 39573 ft | 438 kts | 331° |
| 2026-05-06 17:45 | 40.79072 | 1.36041 | 39767 ft | 439 kts | 331° |
| 2026-05-06 17:45 | 40.81911 | 1.34552 | 39906 ft | 440 kts | 331° |
| 2026-05-06 17:45 | 40.87642 | 1.31540 | 39915 ft | 444 kts | 331° |
| 2026-05-06 17:46 | 40.93369 | 1.28531 | 39914 ft | 441 kts | 331° |
| 2026-05-06 17:46 | 40.99059 | 1.25533 | 39913 ft | 439 kts | 331° |
| 2026-05-06 17:47 | 41.04714 | 1.22550 | 39917 ft | 437 kts | 332° |
| 2026-05-06 17:47 | 41.10351 | 1.19569 | 39915 ft | 436 kts | 331° |
| 2026-05-06 17:48 | 41.16119 | 1.16968 | 39908 ft | 445 kts | 343° |
| 2026-05-06 17:48 | 41.22307 | 1.16254 | 39917 ft | 452 kts | 351° |
| 2026-05-06 17:49 | 41.28584 | 1.15703 | 39920 ft | 452 kts | 349° |
| 2026-05-06 17:49 | 41.34863 | 1.15038 | 39924 ft | 453 kts | 349° |
| 2026-05-06 17:50 | 41.41166 | 1.14376 | 39919 ft | 455 kts | 349° |
| 2026-05-06 17:50 | 41.47496 | 1.13712 | 39916 ft | 457 kts | 349° |
| 2026-05-06 17:51 | 41.53843 | 1.13035 | 39919 ft | 458 kts | 349° |
| 2026-05-06 17:51 | 41.60214 | 1.12359 | 39918 ft | 460 kts | 349° |
| 2026-05-06 17:52 | 41.66589 | 1.11688 | 39914 ft | 460 kts | 349° |
| 2026-05-06 17:52 | 41.72963 | 1.11011 | 39915 ft | 459 kts | 349° |
| 2026-05-06 17:53 | 41.79331 | 1.10335 | 39913 ft | 459 kts | 349° |
| 2026-05-06 17:53 | 41.85682 | 1.09658 | 39914 ft | 457 kts | 349° |
| 2026-05-06 17:54 | 41.92020 | 1.08980 | 39915 ft | 456 kts | 349° |
| 2026-05-06 17:54 | 41.98336 | 1.08306 | 39918 ft | 455 kts | 349° |
| 2026-05-06 17:55 | 42.04608 | 1.07633 | 39911 ft | 454 kts | 350° |
| 2026-05-06 17:55 | 42.10909 | 1.06956 | 39916 ft | 454 kts | 350° |
| 2026-05-06 17:56 | 42.17202 | 1.06278 | 39918 ft | 453 kts | 350° |
| 2026-05-06 17:56 | 42.23489 | 1.05603 | 39911 ft | 453 kts | 350° |
| 2026-05-06 17:57 | 42.29774 | 1.04925 | 39916 ft | 453 kts | 350° |
| 2026-05-06 17:57 | 42.36052 | 1.04246 | 39917 ft | 453 kts | 350° |
| 2026-05-06 17:58 | 42.42334 | 1.03567 | 39917 ft | 452 kts | 350° |
| 2026-05-06 17:58 | 42.48600 | 1.02887 | 39923 ft | 451 kts | 350° |
| 2026-05-06 17:59 | 42.54858 | 1.02201 | 39926 ft | 452 kts | 350° |
| 2026-05-06 17:59 | 42.61132 | 1.01517 | 39925 ft | 452 kts | 350° |
| 2026-05-06 18:00 | 42.67405 | 1.00831 | 39925 ft | 452 kts | 350° |
| 2026-05-06 18:00 | 42.73680 | 1.00143 | 39938 ft | 453 kts | 350° |
| 2026-05-06 18:01 | 42.79965 | 0.99453 | 39942 ft | 453 kts | 350° |
| 2026-05-06 18:01 | 42.86261 | 0.98758 | 39943 ft | 454 kts | 350° |
| 2026-05-06 18:02 | 42.92509 | 0.98069 | 39939 ft | 454 kts | 351° |
| 2026-05-06 18:02 | 42.98811 | 0.97377 | 39951 ft | 454 kts | 351° |
| 2026-05-06 18:03 | 43.05114 | 0.96682 | 39952 ft | 455 kts | 351° |
| 2026-05-06 18:03 | 43.11416 | 0.95981 | 39961 ft | 455 kts | 351° |
| 2026-05-06 18:04 | 43.17731 | 0.95280 | 39965 ft | 455 kts | 351° |
| 2026-05-06 18:04 | 43.24041 | 0.94578 | 39961 ft | 455 kts | 351° |
| 2026-05-06 18:05 | 43.30359 | 0.93874 | 39960 ft | 455 kts | 351° |
| 2026-05-06 18:05 | 43.36671 | 0.93170 | 39965 ft | 455 kts | 351° |
| 2026-05-06 18:06 | 43.42975 | 0.92463 | 39973 ft | 454 kts | 351° |
| 2026-05-06 18:06 | 43.49275 | 0.91757 | 39975 ft | 454 kts | 351° |
| 2026-05-06 18:07 | 43.55567 | 0.91049 | 39974 ft | 453 kts | 351° |
| 2026-05-06 18:07 | 43.61845 | 0.90342 | 39967 ft | 453 kts | 351° |
| 2026-05-06 18:08 | 43.68118 | 0.89634 | 39971 ft | 452 kts | 351° |
| 2026-05-06 18:08 | 43.74381 | 0.88925 | 39971 ft | 451 kts | 351° |
| 2026-05-06 18:09 | 43.80627 | 0.88217 | 39965 ft | 450 kts | 351° |
| 2026-05-06 18:09 | 43.86846 | 0.87461 | 39964 ft | 447 kts | 347° |
| 2026-05-06 18:10 | 43.92705 | 0.84965 | 39979 ft | 436 kts | 331° |
| 2026-05-06 18:10 | 43.98186 | 0.81360 | 39965 ft | 436 kts | 330° |
| 2026-05-06 18:11 | 44.03662 | 0.77737 | 39967 ft | 436 kts | 331° |
| 2026-05-06 18:11 | 44.09161 | 0.74154 | 39974 ft | 437 kts | 331° |
| 2026-05-06 18:12 | 44.14680 | 0.70572 | 39963 ft | 438 kts | 331° |
| 2026-05-06 18:12 | 44.20169 | 0.67007 | 39968 ft | 439 kts | 331° |
| 2026-05-06 18:13 | 44.25715 | 0.63396 | 39967 ft | 441 kts | 331° |
| 2026-05-06 18:13 | 44.31277 | 0.59768 | 39961 ft | 441 kts | 331° |
| 2026-05-06 18:14 | 44.36843 | 0.56128 | 39960 ft | 442 kts | 331° |
| 2026-05-06 18:14 | 44.42414 | 0.52481 | 39963 ft | 442 kts | 331° |
| 2026-05-06 18:15 | 44.47973 | 0.48818 | 39964 ft | 442 kts | 331° |
| 2026-05-06 18:15 | 44.53526 | 0.45133 | 39949 ft | 442 kts | 331° |
| 2026-05-06 18:16 | 44.59073 | 0.41445 | 39951 ft | 440 kts | 331° |
| 2026-05-06 18:16 | 44.64608 | 0.37758 | 39946 ft | 440 kts | 331° |
| 2026-05-06 18:17 | 44.70096 | 0.34094 | 39941 ft | 439 kts | 331° |
| 2026-05-06 18:17 | 44.75608 | 0.30406 | 39942 ft | 438 kts | 331° |
| 2026-05-06 18:18 | 44.81106 | 0.26722 | 39945 ft | 437 kts | 331° |
| 2026-05-06 18:18 | 44.86591 | 0.23040 | 39943 ft | 437 kts | 331° |
| 2026-05-06 18:19 | 44.92066 | 0.19352 | 39944 ft | 436 kts | 331° |
| 2026-05-06 18:19 | 44.97548 | 0.15655 | 39946 ft | 436 kts | 331° |
| 2026-05-06 18:20 | 45.03025 | 0.11953 | 39945 ft | 436 kts | 331° |
| 2026-05-06 18:20 | 45.08503 | 0.08242 | 39946 ft | 437 kts | 331° |
| 2026-05-06 18:21 | 45.13984 | 0.04523 | 39952 ft | 437 kts | 331° |
| 2026-05-06 18:21 | 45.19474 | 0.00789 | 39960 ft | 438 kts | 332° |
| 2026-05-06 18:22 | 45.24965 | -0.02954 | 39963 ft | 438 kts | 332° |
| 2026-05-06 18:22 | 45.30449 | -0.06702 | 39952 ft | 437 kts | 332° |
| 2026-05-06 18:23 | 45.35922 | -0.10449 | 39949 ft | 436 kts | 332° |
| 2026-05-06 18:23 | 45.41368 | -0.14186 | 39947 ft | 434 kts | 332° |
| 2026-05-06 18:24 | 45.46792 | -0.17917 | 39952 ft | 432 kts | 332° |
| 2026-05-06 18:24 | 45.52187 | -0.21635 | 39959 ft | 430 kts | 332° |
| 2026-05-06 18:25 | 45.56658 | -0.24724 | 39963 ft | 429 kts | 332° |
| 2026-05-06 18:25 | 45.62024 | -0.28437 | 39963 ft | 428 kts | 332° |
| 2026-05-06 18:26 | 45.67439 | -0.31985 | 39958 ft | 430 kts | 338° |
| 2026-05-06 18:26 | 45.73143 | -0.34590 | 39963 ft | 431 kts | 341° |
| 2026-05-06 18:27 | 45.78886 | -0.37058 | 39962 ft | 431 kts | 341° |
| 2026-05-06 18:27 | 45.84628 | -0.39595 | 39963 ft | 432 kts | 340° |
| 2026-05-06 18:28 | 45.90367 | -0.42179 | 39961 ft | 432 kts | 340° |
| 2026-05-06 18:28 | 45.96073 | -0.44773 | 39966 ft | 434 kts | 340° |
| 2026-05-06 18:29 | 46.01827 | -0.47399 | 39964 ft | 434 kts | 341° |
| 2026-05-06 18:29 | 46.07596 | -0.50032 | 39964 ft | 435 kts | 341° |
| 2026-05-06 18:30 | 46.13366 | -0.52670 | 39964 ft | 436 kts | 341° |
| 2026-05-06 18:30 | 46.19156 | -0.55324 | 39963 ft | 436 kts | 341° |
| 2026-05-06 18:31 | 46.24945 | -0.57983 | 39962 ft | 437 kts | 341° |
| 2026-05-06 18:31 | 46.30741 | -0.60651 | 39964 ft | 437 kts | 341° |
| 2026-05-06 18:32 | 46.36536 | -0.63325 | 39965 ft | 437 kts | 341° |
| 2026-05-06 18:32 | 46.42326 | -0.65979 | 39963 ft | 437 kts | 343° |
| 2026-05-06 18:33 | 46.48337 | -0.67363 | 39961 ft | 438 kts | 352° |
| 2026-05-06 18:33 | 46.54403 | -0.68288 | 39965 ft | 438 kts | 352° |
| 2026-05-06 18:34 | 46.60458 | -0.69237 | 39957 ft | 437 kts | 352° |
| 2026-05-06 18:34 | 46.66498 | -0.70234 | 39960 ft | 436 kts | 352° |
| 2026-05-06 18:35 | 46.72528 | -0.71249 | 39961 ft | 436 kts | 352° |
| 2026-05-06 18:35 | 46.78547 | -0.72270 | 39960 ft | 435 kts | 352° |
| 2026-05-06 18:36 | 46.84563 | -0.73293 | 39966 ft | 435 kts | 352° |
| 2026-05-06 18:36 | 46.90527 | -0.74307 | 39960 ft | 434 kts | 352° |
| 2026-05-06 18:37 | 46.96568 | -0.75337 | 39966 ft | 434 kts | 352° |
| 2026-05-06 18:37 | 47.02537 | -0.76356 | 39967 ft | 435 kts | 352° |
| 2026-05-06 18:38 | 47.08550 | -0.77384 | 39964 ft | 435 kts | 352° |
| 2026-05-06 18:38 | 47.14568 | -0.78414 | 39964 ft | 436 kts | 352° |
| 2026-05-06 18:39 | 47.20605 | -0.79452 | 39964 ft | 437 kts | 352° |
| 2026-05-06 18:40 | 47.29663 | -0.81016 | 39969 ft | 438 kts | 352° |
| 2026-05-06 18:40 | 47.35722 | -0.82063 | 39974 ft | 438 kts | 352° |
| 2026-05-06 18:41 | 47.41782 | -0.83110 | 39968 ft | 439 kts | 352° |
| 2026-05-06 18:41 | 47.47850 | -0.84166 | 39981 ft | 439 kts | 352° |
| 2026-05-06 18:42 | 47.53911 | -0.85230 | 39969 ft | 439 kts | 351° |
| 2026-05-06 18:42 | 47.59935 | -0.86689 | 39973 ft | 438 kts | 348° |
| 2026-05-06 18:43 | 47.65919 | -0.88345 | 39965 ft | 437 kts | 348° |
| 2026-05-06 18:43 | 47.71898 | -0.89985 | 39974 ft | 437 kts | 348° |
| 2026-05-06 18:44 | 47.77837 | -0.91583 | 39972 ft | 437 kts | 348° |
| 2026-05-06 18:44 | 47.83818 | -0.93181 | 39968 ft | 436 kts | 348° |
| 2026-05-06 18:45 | 47.89793 | -0.94777 | 39965 ft | 436 kts | 348° |
| 2026-05-06 18:45 | 47.95766 | -0.96375 | 39975 ft | 436 kts | 348° |
| 2026-05-06 18:46 | 48.01737 | -0.97976 | 39975 ft | 436 kts | 348° |
| 2026-05-06 18:46 | 48.07706 | -0.99583 | 39965 ft | 436 kts | 348° |
| 2026-05-06 18:47 | 48.13670 | -1.01194 | 39960 ft | 436 kts | 348° |
| 2026-05-06 18:47 | 48.19630 | -1.02805 | 39977 ft | 435 kts | 348° |
| 2026-05-06 18:48 | 48.25590 | -1.04420 | 39972 ft | 435 kts | 348° |
| 2026-05-06 18:48 | 48.31539 | -1.06040 | 39986 ft | 435 kts | 348° |
| 2026-05-06 18:49 | 48.37496 | -1.07661 | 39986 ft | 435 kts | 348° |
| 2026-05-06 18:49 | 48.43457 | -1.09289 | 39980 ft | 435 kts | 348° |
| 2026-05-06 18:50 | 48.49413 | -1.10917 | 39980 ft | 435 kts | 348° |
| 2026-05-06 18:50 | 48.55379 | -1.12555 | 39985 ft | 436 kts | 348° |
| 2026-05-06 18:51 | 48.61344 | -1.14194 | 39986 ft | 435 kts | 348° |
| 2026-05-06 18:51 | 48.67267 | -1.15828 | 39987 ft | 436 kts | 348° |
| 2026-05-06 18:52 | 48.73231 | -1.17477 | 39985 ft | 435 kts | 348° |
| 2026-05-06 18:52 | 48.79181 | -1.19126 | 39990 ft | 435 kts | 348° |
| 2026-05-06 18:53 | 48.85143 | -1.20781 | 39990 ft | 435 kts | 348° |
| 2026-05-06 18:53 | 48.91101 | -1.22439 | 39992 ft | 435 kts | 348° |
| 2026-05-06 18:54 | 48.97062 | -1.24102 | 39989 ft | 435 kts | 348° |
| 2026-05-06 18:54 | 49.03014 | -1.25767 | 39992 ft | 435 kts | 348° |
| 2026-05-06 18:55 | 49.08973 | -1.27436 | 39987 ft | 435 kts | 348° |
| 2026-05-06 18:55 | 49.14930 | -1.29110 | 39994 ft | 435 kts | 348° |
| 2026-05-06 18:56 | 49.20888 | -1.30789 | 39993 ft | 435 kts | 348° |
| 2026-05-06 18:56 | 49.26844 | -1.32472 | 39988 ft | 435 kts | 348° |
| 2026-05-06 18:57 | 49.32795 | -1.34156 | 39992 ft | 435 kts | 348° |
| 2026-05-06 18:57 | 49.38742 | -1.35844 | 39984 ft | 434 kts | 348° |
| 2026-05-06 18:58 | 49.44644 | -1.37523 | 39992 ft | 434 kts | 348° |
| 2026-05-06 18:58 | 49.50576 | -1.39216 | 39989 ft | 434 kts | 348° |
| 2026-05-06 18:59 | 49.56511 | -1.40913 | 39989 ft | 433 kts | 348° |
| 2026-05-06 18:59 | 49.62520 | -1.41572 | 39995 ft | 435 kts | 1° |
| 2026-05-06 19:00 | 49.68563 | -1.40954 | 39991 ft | 435 kts | 2° |
| 2026-05-06 19:00 | 49.74611 | -1.40321 | 39992 ft | 435 kts | 2° |
| 2026-05-06 19:01 | 49.80646 | -1.39763 | 39997 ft | 435 kts | 2° |
| 2026-05-06 19:01 | 49.86704 | -1.39227 | 39996 ft | 436 kts | 2° |
| 2026-05-06 19:02 | 49.92751 | -1.38691 | 39988 ft | 436 kts | 2° |
| 2026-05-06 19:02 | 49.98808 | -1.38151 | 39991 ft | 436 kts | 2° |
| 2026-05-06 19:03 | 50.04837 | -1.37082 | 39995 ft | 437 kts | 7° |
| 2026-05-06 19:03 | 50.10834 | -1.35469 | 39991 ft | 437 kts | 8° |
| 2026-05-06 19:04 | 50.16838 | -1.33884 | 39987 ft | 437 kts | 8° |
| 2026-05-06 19:04 | 50.22844 | -1.32361 | 39993 ft | 437 kts | 7° |
| 2026-05-06 19:05 | 50.28850 | -1.30859 | 39989 ft | 438 kts | 7° |
| 2026-05-06 19:05 | 50.34875 | -1.29350 | 39993 ft | 438 kts | 7° |
| 2026-05-06 19:06 | 50.40854 | -1.27846 | 39989 ft | 438 kts | 7° |
| 2026-05-06 19:06 | 50.46876 | -1.26325 | 39994 ft | 438 kts | 8° |
| 2026-05-06 19:07 | 50.52647 | -1.23262 | 39986 ft | 441 kts | 28° |
| 2026-05-06 19:07 | 50.57856 | -1.18121 | 39987 ft | 442 kts | 32° |
| 2026-05-06 19:08 | 50.63013 | -1.12858 | 39990 ft | 442 kts | 31° |
| 2026-05-06 19:08 | 50.68198 | -1.07651 | 39989 ft | 442 kts | 31° |
| 2026-05-06 19:09 | 50.73397 | -1.02459 | 39994 ft | 442 kts | 31° |
| 2026-05-06 19:09 | 50.78593 | -0.97259 | 39992 ft | 442 kts | 31° |
| 2026-05-06 19:10 | 50.83972 | -0.92642 | 39977 ft | 439 kts | 17° |
| 2026-05-06 19:10 | 50.89783 | -0.89656 | 39991 ft | 439 kts | 15° |
| 2026-05-06 19:11 | 50.95616 | -0.86752 | 39995 ft | 440 kts | 16° |
| 2026-05-06 19:11 | 51.01447 | -0.83778 | 39990 ft | 440 kts | 16° |
| 2026-05-06 19:12 | 51.07275 | -0.80757 | 39991 ft | 440 kts | 16° |
| 2026-05-06 19:12 | 51.13102 | -0.77714 | 39992 ft | 441 kts | 16° |
| 2026-05-06 19:13 | 51.18936 | -0.74662 | 39989 ft | 441 kts | 16° |
| 2026-05-06 19:13 | 51.24730 | -0.71623 | 39999 ft | 441 kts | 16° |
| 2026-05-06 19:14 | 51.30566 | -0.68556 | 39990 ft | 442 kts | 16° |
| 2026-05-06 19:14 | 51.36392 | -0.65486 | 39995 ft | 441 kts | 17° |
| 2026-05-06 19:15 | 51.42226 | -0.62403 | 40001 ft | 441 kts | 17° |
| 2026-05-06 19:15 | 51.48037 | -0.59325 | 40011 ft | 440 kts | 17° |
| 2026-05-06 19:16 | 51.53855 | -0.56235 | 40015 ft | 440 kts | 17° |
| 2026-05-06 19:16 | 51.59677 | -0.53133 | 40011 ft | 440 kts | 17° |
| 2026-05-06 19:17 | 51.65499 | -0.50023 | 40000 ft | 441 kts | 17° |
| 2026-05-06 19:17 | 51.70336 | -0.47432 | 39999 ft | 441 kts | 17° |
| 2026-05-06 19:18 | 51.76153 | -0.44310 | 40008 ft | 441 kts | 17° |
| 2026-05-06 19:18 | 51.81995 | -0.41349 | 40010 ft | 439 kts | 11° |
| 2026-05-06 19:19 | 51.87991 | -0.39536 | 40015 ft | 438 kts | 7° |
| 2026-05-06 19:19 | 51.94001 | -0.37897 | 40019 ft | 438 kts | 8° |
| 2026-05-06 19:20 | 52.00008 | -0.36167 | 40014 ft | 439 kts | 8° |
| 2026-05-06 19:20 | 52.06015 | -0.34377 | 40008 ft | 439 kts | 8° |
| 2026-05-06 19:21 | 52.12023 | -0.32573 | 40013 ft | 439 kts | 8° |
| 2026-05-06 19:21 | 52.18029 | -0.30768 | 40010 ft | 439 kts | 8° |
| 2026-05-06 19:22 | 52.24036 | -0.28960 | 40010 ft | 439 kts | 8° |
| 2026-05-06 19:22 | 52.30067 | -0.28004 | 39997 ft | 433 kts | 350° |
| 2026-05-06 19:22 | 52.32958 | -0.28993 | 40010 ft | 429 kts | 339° |
| 2026-05-06 19:23 | 52.35709 | -0.30981 | 40016 ft | 426 kts | 329° |
| 2026-05-06 19:23 | 52.40886 | -0.35671 | 40009 ft | 426 kts | 329° |
| 2026-05-06 19:24 | 52.46071 | -0.40397 | 40013 ft | 426 kts | 329° |
| 2026-05-06 19:24 | 52.51237 | -0.45050 | 40016 ft | 427 kts | 329° |
| 2026-05-06 19:25 | 52.56453 | -0.49727 | 40021 ft | 427 kts | 329° |
| 2026-05-06 19:25 | 52.61670 | -0.54411 | 39922 ft | 430 kts | 329° |
| 2026-05-06 19:25 | 52.64313 | -0.56790 | 39434 ft | 433 kts | 329° |
| 2026-05-06 19:26 | 52.66955 | -0.59170 | 38843 ft | 433 kts | 329° |
| 2026-05-06 19:26 | 52.69592 | -0.61549 | 38282 ft | 432 kts | 329° |
| 2026-05-06 19:26 | 52.72229 | -0.63933 | 37682 ft | 432 kts | 329° |
| 2026-05-06 19:26 | 52.74863 | -0.66317 | 37066 ft | 432 kts | 329° |
| 2026-05-06 19:27 | 52.77498 | -0.68704 | 36439 ft | 432 kts | 329° |
| 2026-05-06 19:27 | 52.80127 | -0.71090 | 35792 ft | 432 kts | 329° |
| 2026-05-06 19:27 | 52.82768 | -0.73491 | 35064 ft | 434 kts | 329° |
| 2026-05-06 19:27 | 52.85407 | -0.75892 | 34522 ft | 432 kts | 329° |
| 2026-05-06 19:28 | 52.88029 | -0.78281 | 34000 ft | 428 kts | 329° |
| 2026-05-06 19:28 | 52.90629 | -0.80654 | 33487 ft | 425 kts | 329° |
| 2026-05-06 19:28 | 52.93205 | -0.83007 | 32965 ft | 422 kts | 329° |
| 2026-05-06 19:28 | 52.95762 | -0.85347 | 32463 ft | 418 kts | 329° |
| 2026-05-06 19:29 | 52.98299 | -0.87673 | 31959 ft | 415 kts | 329° |
| 2026-05-06 19:29 | 53.00819 | -0.89984 | 31458 ft | 412 kts | 329° |
| 2026-05-06 19:29 | 53.03306 | -0.92268 | 30975 ft | 408 kts | 329° |
| 2026-05-06 19:29 | 53.05786 | -0.94546 | 30489 ft | 404 kts | 329° |
| 2026-05-06 19:30 | 53.08233 | -0.96796 | 30015 ft | 401 kts | 329° |
| 2026-05-06 19:30 | 53.10662 | -0.99035 | 29516 ft | 397 kts | 329° |
| 2026-05-06 19:30 | 53.13068 | -1.01255 | 29013 ft | 394 kts | 329° |
| 2026-05-06 19:30 | 53.15455 | -1.03462 | 28498 ft | 391 kts | 329° |
| 2026-05-06 19:31 | 53.17822 | -1.05652 | 27998 ft | 388 kts | 329° |
| 2026-05-06 19:31 | 53.20173 | -1.07831 | 27507 ft | 385 kts | 329° |
| 2026-05-06 19:31 | 53.24823 | -1.12146 | 26507 ft | 380 kts | 329° |
| 2026-05-06 19:32 | 53.27122 | -1.14285 | 26013 ft | 377 kts | 329° |
| 2026-05-06 19:32 | 53.29408 | -1.16415 | 25520 ft | 375 kts | 329° |
| 2026-05-06 19:32 | 53.31677 | -1.18530 | 25031 ft | 372 kts | 329° |
| 2026-05-06 19:32 | 53.33898 | -1.20604 | 24547 ft | 370 kts | 329° |
| 2026-05-06 19:33 | 53.36166 | -1.22722 | 24056 ft | 367 kts | 329° |
| 2026-05-06 19:33 | 53.38390 | -1.24803 | 23570 ft | 365 kts | 329° |
| 2026-05-06 19:33 | 53.40642 | -1.26739 | 23081 ft | 364 kts | 336° |
| 2026-05-06 19:33 | 53.43058 | -1.28021 | 22606 ft | 364 kts | 345° |
| 2026-05-06 19:34 | 53.45566 | -1.28599 | 22129 ft | 364 kts | 353° |
| 2026-05-06 19:34 | 53.48050 | -1.28858 | 21660 ft | 362 kts | 354° |
| 2026-05-06 19:34 | 53.50601 | -1.29113 | 21159 ft | 360 kts | 354° |
| 2026-05-06 19:34 | 53.53061 | -1.29386 | 20708 ft | 358 kts | 353° |
| 2026-05-06 19:35 | 53.55535 | -1.29680 | 20244 ft | 356 kts | 353° |
| 2026-05-06 19:35 | 53.57963 | -1.30314 | 19767 ft | 351 kts | 342° |
| 2026-05-06 19:35 | 53.60238 | -1.31663 | 19453 ft | 342 kts | 333° |
| 2026-05-06 19:35 | 53.62288 | -1.33576 | 19202 ft | 333 kts | 327° |
| 2026-05-06 19:36 | 53.64242 | -1.35588 | 18944 ft | 326 kts | 326° |
| 2026-05-06 19:36 | 53.66173 | -1.37599 | 18439 ft | 328 kts | 327° |
| 2026-05-06 19:36 | 53.68117 | -1.39596 | 17988 ft | 327 kts | 327° |
| 2026-05-06 19:36 | 53.70063 | -1.41576 | 17542 ft | 326 kts | 327° |
| 2026-05-06 19:37 | 53.72005 | -1.43550 | 17083 ft | 326 kts | 327° |
| 2026-05-06 19:37 | 53.73961 | -1.45538 | 16445 ft | 331 kts | 327° |
| 2026-05-06 19:37 | 53.75932 | -1.47544 | 15965 ft | 330 kts | 327° |
| 2026-05-06 19:37 | 53.77893 | -1.49545 | 15504 ft | 328 kts | 327° |
| 2026-05-06 19:38 | 53.79840 | -1.51547 | 15050 ft | 327 kts | 327° |
| 2026-05-06 19:38 | 53.81780 | -1.53537 | 14593 ft | 325 kts | 327° |
| 2026-05-06 19:38 | 53.83707 | -1.55513 | 14135 ft | 324 kts | 327° |
| 2026-05-06 19:38 | 53.85631 | -1.57477 | 13687 ft | 322 kts | 328° |
| 2026-05-06 19:39 | 53.87545 | -1.59426 | 13242 ft | 320 kts | 327° |
| 2026-05-06 19:39 | 53.89449 | -1.61374 | 12791 ft | 319 kts | 328° |
| 2026-05-06 19:39 | 53.91344 | -1.63317 | 12340 ft | 317 kts | 328° |
| 2026-05-06 19:39 | 53.93226 | -1.65253 | 11901 ft | 316 kts | 328° |
| 2026-05-06 19:40 | 53.95103 | -1.67187 | 11441 ft | 315 kts | 328° |
| 2026-05-06 19:40 | 53.96970 | -1.69111 | 11001 ft | 313 kts | 328° |
| 2026-05-06 19:40 | 53.98831 | -1.71031 | 10558 ft | 312 kts | 328° |
| 2026-05-06 19:40 | 54.00678 | -1.72939 | 10168 ft | 309 kts | 328° |
| 2026-05-06 19:41 | 54.02480 | -1.74800 | 10027 ft | 298 kts | 328° |
| 2026-05-06 19:41 | 54.04213 | -1.76592 | 9979 ft | 285 kts | 328° |
| 2026-05-06 19:41 | 54.05904 | -1.78342 | 9377 ft | 288 kts | 328° |
| 2026-05-06 19:41 | 54.07602 | -1.80102 | 8873 ft | 282 kts | 328° |
| 2026-05-06 19:42 | 54.09257 | -1.81818 | 8486 ft | 275 kts | 328° |
| 2026-05-06 19:42 | 54.10875 | -1.83500 | 8108 ft | 273 kts | 328° |
| 2026-05-06 19:42 | 54.12495 | -1.85184 | 7744 ft | 273 kts | 328° |
| 2026-05-06 19:42 | 54.14119 | -1.86874 | 7382 ft | 273 kts | 328° |
| 2026-05-06 19:43 | 54.15739 | -1.88560 | 7020 ft | 274 kts | 328° |
| 2026-05-06 19:43 | 54.17350 | -1.90235 | 6653 ft | 276 kts | 328° |
| 2026-05-06 19:43 | 54.18983 | -1.91938 | 6354 ft | 273 kts | 328° |
| 2026-05-06 19:43 | 54.20660 | -1.93461 | 5988 ft | 274 kts | 343° |
| 2026-05-06 19:44 | 54.22541 | -1.93511 | 5627 ft | 274 kts | 17° |
| 2026-05-06 19:44 | 54.24211 | -1.91977 | 5270 ft | 273 kts | 35° |
| 2026-05-06 19:44 | 54.25714 | -1.89984 | 4882 ft | 273 kts | 40° |
| 2026-05-06 19:44 | 54.27093 | -1.87770 | 4625 ft | 269 kts | 45° |
| 2026-05-06 19:45 | 54.28355 | -1.85476 | 4488 ft | 262 kts | 47° |
| 2026-05-06 19:45 | 54.29569 | -1.83179 | 4320 ft | 258 kts | 48° |
| 2026-05-06 19:45 | 54.30758 | -1.80918 | 4188 ft | 251 kts | 48° |
| 2026-05-06 19:45 | 54.31912 | -1.78728 | 4065 ft | 244 kts | 48° |
| 2026-05-06 19:46 | 54.33036 | -1.76603 | 3934 ft | 237 kts | 48° |
| 2026-05-06 19:46 | 54.34130 | -1.74542 | 3783 ft | 231 kts | 49° |
| 2026-05-06 19:46 | 54.35194 | -1.72529 | 3701 ft | 225 kts | 48° |
| 2026-05-06 19:46 | 54.36240 | -1.70555 | 3546 ft | 219 kts | 49° |
| 2026-05-06 19:47 | 54.37237 | -1.68676 | 3436 ft | 209 kts | 48° |
| 2026-05-06 19:47 | 54.38198 | -1.66867 | 3297 ft | 201 kts | 49° |
| 2026-05-06 19:47 | 54.39114 | -1.65141 | 3213 ft | 189 kts | 49° |
| 2026-05-06 19:47 | 54.39990 | -1.63490 | 3058 ft | 187 kts | 49° |
| 2026-05-06 19:48 | 54.40865 | -1.61844 | 2813 ft | 186 kts | 49° |
| 2026-05-06 19:48 | 54.41720 | -1.60226 | 2558 ft | 179 kts | 49° |
| 2026-05-06 19:48 | 54.42547 | -1.58678 | 2339 ft | 172 kts | 49° |
| 2026-05-06 19:48 | 54.43330 | -1.57210 | 2096 ft | 161 kts | 49° |
| 2026-05-06 19:49 | 54.44031 | -1.55882 | 1915 ft | 143 kts | 49° |
| 2026-05-06 19:49 | 54.44677 | -1.54658 | 1724 ft | 135 kts | 49° |
| 2026-05-06 19:49 | 54.45288 | -1.53518 | 1525 ft | 124 kts | 49° |
| 2026-05-06 19:49 | 54.45865 | -1.52433 | 1397 ft | 125 kts | 49° |
| 2026-05-06 19:50 | 54.46444 | -1.51338 | 1230 ft | 122 kts | 49° |
| 2026-05-06 19:50 | 54.47023 | -1.50257 | 1022 ft | 125 kts | 49° |
| 2026-05-06 19:50 | 54.47603 | -1.49156 | 880 ft | 124 kts | 49° |
| 2026-05-06 19:50 | 54.48192 | -1.48058 | 726 ft | 127 kts | 48° |
| 2026-05-06 19:51 | 54.48788 | -1.46906 | 528 ft | 130 kts | 49° |
| 2026-05-06 19:51 | 54.49392 | -1.45799 | 393 ft | 125 kts | 49° |
| 2026-05-06 19:51 | 54.49981 | -1.44694 | 233 ft | 125 kts | 47° |
| 2026-05-06 19:51 | 54.50551 | -1.43626 | 121 ft | 112 kts | 47° |
| 2026-05-06 19:52 | 54.50933 | -1.42911 | 121 ft | 45 kts | 48° |
| 2026-05-06 19:52 | 54.51035 | -1.42766 | 120 ft | 12 kts | 346° |
| 2026-05-06 19:52 | 54.51058 | -1.42873 | 121 ft | 9 kts | 269° |
| 2026-05-06 19:52 | 54.51061 | -1.42973 | 124 ft | 8 kts | 273° |
| 2026-05-06 19:53 | 54.51063 | -1.43069 | 122 ft | 8 kts | 272° |
| 2026-05-06 19:53 | 54.51065 | -1.43161 | 125 ft | 7 kts | 272° |
| 2026-05-06 19:53 | 54.51051 | -1.43239 | 122 ft | 7 kts | 239° |
| 2026-05-06 19:53 | 54.51028 | -1.43305 | 123 ft | 6 kts | 238° |
| 2026-05-06 19:54 | 54.51001 | -1.43381 | 128 ft | 9 kts | 240° |
| 2026-05-06 19:54 | 54.50999 | -1.43443 | 124 ft | 6 kts | 313° |
| 2026-05-06 19:54 | 54.51041 | -1.43475 | 128 ft | 3 kts | 15° |
| 2026-05-06 19:54 | 54.51064 | -1.43427 | 125 ft | 6 kts | 61° |
| 2026-05-06 19:55 | 54.51070 | -1.43411 | 123 ft | 0 kts | 59° |
| 2026-05-06 20:00 | 54.51138 | -1.43240 | 123 ft | 0 kts | 73° |
| 2026-05-06 20:00 | 54.51082 | -1.43417 | 124 ft | 0 kts | 329° |
| 2026-05-06 20:00 | 54.51068 | -1.43401 | 126 ft | 0 kts | 59° |
| 2026-05-06 20:00 | 54.51082 | -1.43417 | 128 ft | 0 kts | 329° |
| 2026-05-06 20:01 | 54.51084 | -1.43440 | 125 ft | 0 kts | 44° |
| 2026-05-06 20:01 | 54.51068 | -1.43400 | 125 ft | 0 kts | 59° |